sensor_id;sensor_type;location;lat;lon;timestamp;P1;durP1;ratioP1;P2;durP2;ratioP2
74108;SDS011;62466;47.566;7.786;2022-12-18T00:03:47;30.67;;;16.08;;
74108;SDS011;62466;47.566;7.786;2022-12-18T00:06:13;27.55;;;14.90;;
74108;SDS011;62466;47.566;7.786;2022-12-18T00:08:40;26.88;;;15.25;;
74108;SDS011;62466;47.566;7.786;2022-12-18T00:11:06;29.17;;;15.50;;
74108;SDS011;62466;47.566;7.786;2022-12-18T00:13:33;24.02;;;14.40;;
74108;SDS011;62466;47.566;7.786;2022-12-18T00:16:18;23.90;;;15.10;;
74108;SDS011;62466;47.566;7.786;2022-12-18T00:18:46;26.60;;;14.68;;
74108;SDS011;62466;47.566;7.786;2022-12-18T00:21:12;31.00;;;15.52;;
74108;SDS011;62466;47.566;7.786;2022-12-18T00:23:38;27.95;;;15.18;;
74108;SDS011;62466;47.566;7.786;2022-12-18T00:26:05;31.75;;;16.63;;
74108;SDS011;62466;47.566;7.786;2022-12-18T00:28:32;27.02;;;14.52;;
74108;SDS011;62466;47.566;7.786;2022-12-18T00:31:02;28.30;;;15.88;;
74108;SDS011;62466;47.566;7.786;2022-12-18T00:33:29;22.73;;;14.15;;
74108;SDS011;62466;47.566;7.786;2022-12-18T00:35:59;27.77;;;15.60;;
74108;SDS011;62466;47.566;7.786;2022-12-18T00:38:29;27.00;;;15.18;;
74108;SDS011;62466;47.566;7.786;2022-12-18T00:40:55;34.03;;;16.30;;
74108;SDS011;62466;47.566;7.786;2022-12-18T00:43:20;28.15;;;14.75;;
74108;SDS011;62466;47.566;7.786;2022-12-18T00:45:46;26.73;;;15.32;;
74108;SDS011;62466;47.566;7.786;2022-12-18T00:48:11;29.05;;;16.02;;
74108;SDS011;62466;47.566;7.786;2022-12-18T00:50:37;28.25;;;15.57;;
74108;SDS011;62466;47.566;7.786;2022-12-18T00:53:02;33.28;;;16.88;;
74108;SDS011;62466;47.566;7.786;2022-12-18T00:55:28;30.08;;;17.00;;
74108;SDS011;62466;47.566;7.786;2022-12-18T00:57:53;28.33;;;16.35;;
74108;SDS011;62466;47.566;7.786;2022-12-18T01:00:19;27.50;;;15.48;;
74108;SDS011;62466;47.566;7.786;2022-12-18T01:02:44;31.00;;;16.67;;
74108;SDS011;62466;47.566;7.786;2022-12-18T01:05:10;34.13;;;16.63;;
74108;SDS011;62466;47.566;7.786;2022-12-18T01:07:36;32.42;;;16.65;;
74108;SDS011;62466;47.566;7.786;2022-12-18T01:10:02;30.48;;;15.38;;
74108;SDS011;62466;47.566;7.786;2022-12-18T01:12:28;32.78;;;16.98;;
74108;SDS011;62466;47.566;7.786;2022-12-18T01:14:54;30.73;;;17.10;;
74108;SDS011;62466;47.566;7.786;2022-12-18T01:17:19;29.35;;;16.48;;
74108;SDS011;62466;47.566;7.786;2022-12-18T01:19:45;29.15;;;16.98;;
74108;SDS011;62466;47.566;7.786;2022-12-18T01:22:10;34.55;;;17.73;;
74108;SDS011;62466;47.566;7.786;2022-12-18T01:24:36;33.70;;;17.13;;
74108;SDS011;62466;47.566;7.786;2022-12-18T01:27:02;28.70;;;15.73;;
74108;SDS011;62466;47.566;7.786;2022-12-18T01:29:27;34.38;;;16.92;;
74108;SDS011;62466;47.566;7.786;2022-12-18T01:31:54;31.88;;;15.60;;
74108;SDS011;62466;47.566;7.786;2022-12-18T01:34:21;32.08;;;16.05;;
74108;SDS011;62466;47.566;7.786;2022-12-18T01:36:47;30.25;;;16.95;;
74108;SDS011;62466;47.566;7.786;2022-12-18T01:39:14;35.97;;;16.70;;
74108;SDS011;62466;47.566;7.786;2022-12-18T01:41:41;40.08;;;17.38;;
74108;SDS011;62466;47.566;7.786;2022-12-18T01:47:15;31.23;;;15.60;;
74108;SDS011;62466;47.566;7.786;2022-12-18T01:49:45;38.53;;;18.40;;
74108;SDS011;62466;47.566;7.786;2022-12-18T01:52:11;36.95;;;17.35;;
74108;SDS011;62466;47.566;7.786;2022-12-18T01:54:36;37.53;;;17.63;;
74108;SDS011;62466;47.566;7.786;2022-12-18T01:57:02;33.35;;;15.98;;
74108;SDS011;62466;47.566;7.786;2022-12-18T01:59:27;38.40;;;17.15;;
74108;SDS011;62466;47.566;7.786;2022-12-18T02:01:54;30.60;;;16.60;;
74108;SDS011;62466;47.566;7.786;2022-12-18T02:04:23;36.38;;;17.98;;
74108;SDS011;62466;47.566;7.786;2022-12-18T02:06:55;37.50;;;18.30;;
74108;SDS011;62466;47.566;7.786;2022-12-18T02:09:31;34.95;;;17.05;;
74108;SDS011;62466;47.566;7.786;2022-12-18T02:12:01;41.80;;;19.10;;
74108;SDS011;62466;47.566;7.786;2022-12-18T02:14:40;39.10;;;18.75;;
74108;SDS011;62466;47.566;7.786;2022-12-18T02:17:16;33.38;;;18.45;;
74108;SDS011;62466;47.566;7.786;2022-12-18T02:27:12;38.00;;;17.98;;
74108;SDS011;62466;47.566;7.786;2022-12-18T02:32:26;37.65;;;17.88;;
74108;SDS011;62466;47.566;7.786;2022-12-18T02:34:54;37.30;;;18.80;;
74108;SDS011;62466;47.566;7.786;2022-12-18T02:37:23;42.08;;;19.92;;
74108;SDS011;62466;47.566;7.786;2022-12-18T02:39:51;42.58;;;19.00;;
74108;SDS011;62466;47.566;7.786;2022-12-18T02:42:19;38.35;;;19.17;;
74108;SDS011;62466;47.566;7.786;2022-12-18T02:44:48;41.08;;;18.80;;
74108;SDS011;62466;47.566;7.786;2022-12-18T02:47:20;38.70;;;19.40;;
74108;SDS011;62466;47.566;7.786;2022-12-18T02:55:09;42.05;;;20.02;;
74108;SDS011;62466;47.566;7.786;2022-12-18T02:57:48;35.53;;;17.83;;
74108;SDS011;62466;47.566;7.786;2022-12-18T03:00:46;42.05;;;19.27;;
74108;SDS011;62466;47.566;7.786;2022-12-18T03:03:30;39.92;;;18.17;;
74108;SDS011;62466;47.566;7.786;2022-12-18T03:06:06;39.33;;;19.50;;
74108;SDS011;62466;47.566;7.786;2022-12-18T03:08:42;41.33;;;18.67;;
74108;SDS011;62466;47.566;7.786;2022-12-18T03:11:10;37.17;;;18.05;;
74108;SDS011;62466;47.566;7.786;2022-12-18T03:13:52;39.92;;;19.90;;
74108;SDS011;62466;47.566;7.786;2022-12-18T03:16:26;42.50;;;19.80;;
74108;SDS011;62466;47.566;7.786;2022-12-18T03:19:04;38.90;;;19.77;;
74108;SDS011;62466;47.566;7.786;2022-12-18T03:21:40;39.55;;;19.65;;
74108;SDS011;62466;47.566;7.786;2022-12-18T03:24:09;40.17;;;20.40;;
74108;SDS011;62466;47.566;7.786;2022-12-18T03:26:38;40.75;;;19.52;;
74108;SDS011;62466;47.566;7.786;2022-12-18T03:29:09;42.05;;;21.05;;
74108;SDS011;62466;47.566;7.786;2022-12-18T03:31:40;34.70;;;17.00;;
74108;SDS011;62466;47.566;7.786;2022-12-18T03:34:11;37.08;;;17.95;;
74108;SDS011;62466;47.566;7.786;2022-12-18T03:36:43;42.75;;;18.40;;
74108;SDS011;62466;47.566;7.786;2022-12-18T03:39:09;43.67;;;20.63;;
74108;SDS011;62466;47.566;7.786;2022-12-18T03:41:40;49.00;;;20.35;;
74108;SDS011;62466;47.566;7.786;2022-12-18T03:44:42;38.95;;;20.02;;
74108;SDS011;62466;47.566;7.786;2022-12-18T03:52:49;40.80;;;20.98;;
74108;SDS011;62466;47.566;7.786;2022-12-18T03:55:18;42.53;;;19.05;;
74108;SDS011;62466;47.566;7.786;2022-12-18T03:57:47;40.50;;;19.55;;
74108;SDS011;62466;47.566;7.786;2022-12-18T04:00:14;39.58;;;21.05;;
74108;SDS011;62466;47.566;7.786;2022-12-18T04:03:00;48.22;;;20.75;;
74108;SDS011;62466;47.566;7.786;2022-12-18T04:05:33;41.53;;;20.90;;
74108;SDS011;62466;47.566;7.786;2022-12-18T04:08:00;45.72;;;20.30;;
74108;SDS011;62466;47.566;7.786;2022-12-18T04:10:26;44.58;;;20.55;;
74108;SDS011;62466;47.566;7.786;2022-12-18T04:12:55;40.40;;;20.30;;
74108;SDS011;62466;47.566;7.786;2022-12-18T04:15:21;42.13;;;19.33;;
74108;SDS011;62466;47.566;7.786;2022-12-18T04:17:47;39.70;;;20.27;;
74108;SDS011;62466;47.566;7.786;2022-12-18T04:20:16;51.00;;;21.42;;
74108;SDS011;62466;47.566;7.786;2022-12-18T04:22:43;48.58;;;19.83;;
74108;SDS011;62466;47.566;7.786;2022-12-18T04:25:09;43.22;;;20.15;;
74108;SDS011;62466;47.566;7.786;2022-12-18T04:27:40;44.35;;;20.20;;
74108;SDS011;62466;47.566;7.786;2022-12-18T04:30:06;42.88;;;20.60;;
74108;SDS011;62466;47.566;7.786;2022-12-18T04:32:33;41.38;;;19.40;;
74108;SDS011;62466;47.566;7.786;2022-12-18T04:34:59;42.10;;;19.27;;
74108;SDS011;62466;47.566;7.786;2022-12-18T04:37:25;38.88;;;18.58;;
74108;SDS011;62466;47.566;7.786;2022-12-18T04:39:50;42.20;;;21.08;;
74108;SDS011;62466;47.566;7.786;2022-12-18T04:42:23;47.67;;;18.95;;
74108;SDS011;62466;47.566;7.786;2022-12-18T04:44:49;40.05;;;18.52;;
74108;SDS011;62466;47.566;7.786;2022-12-18T04:47:14;45.20;;;19.05;;
74108;SDS011;62466;47.566;7.786;2022-12-18T04:49:39;39.72;;;19.13;;
74108;SDS011;62466;47.566;7.786;2022-12-18T04:52:05;40.88;;;18.25;;
74108;SDS011;62466;47.566;7.786;2022-12-18T04:54:30;44.42;;;18.60;;
74108;SDS011;62466;47.566;7.786;2022-12-18T04:56:56;50.20;;;21.58;;
74108;SDS011;62466;47.566;7.786;2022-12-18T04:59:21;41.10;;;20.30;;
74108;SDS011;62466;47.566;7.786;2022-12-18T05:01:47;45.08;;;19.10;;
74108;SDS011;62466;47.566;7.786;2022-12-18T05:04:12;38.85;;;18.67;;
74108;SDS011;62466;47.566;7.786;2022-12-18T05:06:37;39.90;;;18.17;;
74108;SDS011;62466;47.566;7.786;2022-12-18T05:09:03;39.30;;;19.83;;
74108;SDS011;62466;47.566;7.786;2022-12-18T05:11:28;45.60;;;20.08;;
74108;SDS011;62466;47.566;7.786;2022-12-18T05:13:54;45.88;;;19.80;;
74108;SDS011;62466;47.566;7.786;2022-12-18T05:16:19;44.35;;;20.55;;
74108;SDS011;62466;47.566;7.786;2022-12-18T05:18:44;44.28;;;21.00;;
74108;SDS011;62466;47.566;7.786;2022-12-18T05:21:10;41.13;;;19.25;;
74108;SDS011;62466;47.566;7.786;2022-12-18T05:23:36;43.55;;;19.15;;
74108;SDS011;62466;47.566;7.786;2022-12-18T05:26:02;40.28;;;18.80;;
74108;SDS011;62466;47.566;7.786;2022-12-18T05:28:29;41.42;;;19.30;;
74108;SDS011;62466;47.566;7.786;2022-12-18T05:30:57;38.20;;;17.58;;
74108;SDS011;62466;47.566;7.786;2022-12-18T05:33:24;40.80;;;18.88;;
74108;SDS011;62466;47.566;7.786;2022-12-18T05:35:51;40.33;;;18.83;;
74108;SDS011;62466;47.566;7.786;2022-12-18T05:38:21;41.60;;;18.92;;
74108;SDS011;62466;47.566;7.786;2022-12-18T05:40:48;40.45;;;18.85;;
74108;SDS011;62466;47.566;7.786;2022-12-18T05:43:13;38.15;;;17.63;;
74108;SDS011;62466;47.566;7.786;2022-12-18T05:45:39;43.33;;;19.50;;
74108;SDS011;62466;47.566;7.786;2022-12-18T05:48:05;40.40;;;19.02;;
74108;SDS011;62466;47.566;7.786;2022-12-18T05:50:33;46.88;;;20.23;;
74108;SDS011;62466;47.566;7.786;2022-12-18T05:53:02;47.28;;;18.58;;
74108;SDS011;62466;47.566;7.786;2022-12-18T05:55:28;39.50;;;18.02;;
74108;SDS011;62466;47.566;7.786;2022-12-18T05:57:55;34.97;;;17.40;;
74108;SDS011;62466;47.566;7.786;2022-12-18T06:00:20;40.20;;;18.80;;
74108;SDS011;62466;47.566;7.786;2022-12-18T06:02:46;37.30;;;18.17;;
74108;SDS011;62466;47.566;7.786;2022-12-18T06:05:12;33.97;;;18.13;;
74108;SDS011;62466;47.566;7.786;2022-12-18T06:07:38;43.60;;;19.30;;
74108;SDS011;62466;47.566;7.786;2022-12-18T06:10:03;45.53;;;19.02;;
74108;SDS011;62466;47.566;7.786;2022-12-18T06:12:29;38.75;;;19.20;;
74108;SDS011;62466;47.566;7.786;2022-12-18T06:14:54;43.35;;;20.08;;
74108;SDS011;62466;47.566;7.786;2022-12-18T06:17:20;43.42;;;19.83;;
74108;SDS011;62466;47.566;7.786;2022-12-18T06:19:45;46.63;;;18.67;;
74108;SDS011;62466;47.566;7.786;2022-12-18T06:22:10;44.13;;;18.60;;
74108;SDS011;62466;47.566;7.786;2022-12-18T06:24:36;40.20;;;18.00;;
74108;SDS011;62466;47.566;7.786;2022-12-18T06:27:01;40.25;;;16.38;;
74108;SDS011;62466;47.566;7.786;2022-12-18T06:29:30;42.90;;;18.05;;
74108;SDS011;62466;47.566;7.786;2022-12-18T06:31:55;41.15;;;18.35;;
74108;SDS011;62466;47.566;7.786;2022-12-18T06:34:21;42.78;;;18.33;;
74108;SDS011;62466;47.566;7.786;2022-12-18T06:36:46;36.10;;;18.80;;
74108;SDS011;62466;47.566;7.786;2022-12-18T06:39:12;41.20;;;18.27;;
74108;SDS011;62466;47.566;7.786;2022-12-18T06:41:37;39.47;;;18.30;;
74108;SDS011;62466;47.566;7.786;2022-12-18T06:44:02;39.17;;;17.63;;
74108;SDS011;62466;47.566;7.786;2022-12-18T06:46:28;44.75;;;17.98;;
74108;SDS011;62466;47.566;7.786;2022-12-18T06:48:53;38.72;;;18.50;;
74108;SDS011;62466;47.566;7.786;2022-12-18T06:51:19;42.80;;;18.58;;
74108;SDS011;62466;47.566;7.786;2022-12-18T06:53:46;38.35;;;17.42;;
74108;SDS011;62466;47.566;7.786;2022-12-18T06:56:12;41.83;;;17.33;;
74108;SDS011;62466;47.566;7.786;2022-12-18T06:58:38;45.13;;;17.90;;
74108;SDS011;62466;47.566;7.786;2022-12-18T07:01:04;39.20;;;17.38;;
74108;SDS011;62466;47.566;7.786;2022-12-18T07:03:31;39.72;;;19.08;;
74108;SDS011;62466;47.566;7.786;2022-12-18T07:05:56;43.97;;;19.60;;
74108;SDS011;62466;47.566;7.786;2022-12-18T07:08:22;39.65;;;17.95;;
74108;SDS011;62466;47.566;7.786;2022-12-18T07:10:47;34.10;;;17.23;;
74108;SDS011;62466;47.566;7.786;2022-12-18T07:13:14;37.92;;;17.60;;
74108;SDS011;62466;47.566;7.786;2022-12-18T07:15:40;46.30;;;18.60;;
74108;SDS011;62466;47.566;7.786;2022-12-18T07:18:06;43.08;;;18.75;;
74108;SDS011;62466;47.566;7.786;2022-12-18T07:20:31;36.40;;;16.88;;
74108;SDS011;62466;47.566;7.786;2022-12-18T07:22:57;36.05;;;17.02;;
74108;SDS011;62466;47.566;7.786;2022-12-18T07:25:22;43.70;;;20.30;;
74108;SDS011;62466;47.566;7.786;2022-12-18T07:27:48;43.28;;;19.00;;
74108;SDS011;62466;47.566;7.786;2022-12-18T07:30:14;47.22;;;19.83;;
74108;SDS011;62466;47.566;7.786;2022-12-18T07:32:39;37.95;;;19.27;;
74108;SDS011;62466;47.566;7.786;2022-12-18T07:35:05;46.30;;;18.00;;
74108;SDS011;62466;47.566;7.786;2022-12-18T07:37:31;42.65;;;17.92;;
74108;SDS011;62466;47.566;7.786;2022-12-18T07:39:56;36.60;;;16.90;;
74108;SDS011;62466;47.566;7.786;2022-12-18T07:42:22;40.20;;;18.33;;
74108;SDS011;62466;47.566;7.786;2022-12-18T07:44:57;41.13;;;17.73;;
74108;SDS011;62466;47.566;7.786;2022-12-18T07:47:26;37.35;;;16.10;;
74108;SDS011;62466;47.566;7.786;2022-12-18T07:49:54;37.83;;;17.10;;
74108;SDS011;62466;47.566;7.786;2022-12-18T07:52:20;38.00;;;17.38;;
74108;SDS011;62466;47.566;7.786;2022-12-18T07:54:46;35.38;;;16.77;;
74108;SDS011;62466;47.566;7.786;2022-12-18T07:57:14;36.50;;;16.73;;
74108;SDS011;62466;47.566;7.786;2022-12-18T07:59:40;43.63;;;18.08;;
74108;SDS011;62466;47.566;7.786;2022-12-18T08:02:05;46.47;;;19.17;;
74108;SDS011;62466;47.566;7.786;2022-12-18T08:04:31;43.30;;;19.92;;
74108;SDS011;62466;47.566;7.786;2022-12-18T08:07:01;44.08;;;18.65;;
74108;SDS011;62466;47.566;7.786;2022-12-18T08:09:26;35.97;;;17.23;;
74108;SDS011;62466;47.566;7.786;2022-12-18T08:11:52;40.28;;;18.52;;
74108;SDS011;62466;47.566;7.786;2022-12-18T08:14:17;44.58;;;17.58;;
74108;SDS011;62466;47.566;7.786;2022-12-18T08:16:43;39.35;;;18.15;;
74108;SDS011;62466;47.566;7.786;2022-12-18T08:19:09;42.72;;;19.55;;
74108;SDS011;62466;47.566;7.786;2022-12-18T08:21:35;37.67;;;16.80;;
74108;SDS011;62466;47.566;7.786;2022-12-18T08:24:00;36.97;;;16.77;;
74108;SDS011;62466;47.566;7.786;2022-12-18T08:26:28;37.38;;;18.15;;
74108;SDS011;62466;47.566;7.786;2022-12-18T08:28:55;35.65;;;16.15;;
74108;SDS011;62466;47.566;7.786;2022-12-18T08:31:21;42.20;;;17.85;;
74108;SDS011;62466;47.566;7.786;2022-12-18T08:33:50;38.38;;;17.60;;
74108;SDS011;62466;47.566;7.786;2022-12-18T08:36:16;32.63;;;16.27;;
74108;SDS011;62466;47.566;7.786;2022-12-18T08:38:42;35.05;;;16.85;;
74108;SDS011;62466;47.566;7.786;2022-12-18T08:41:08;38.58;;;16.17;;
74108;SDS011;62466;47.566;7.786;2022-12-18T08:43:36;35.17;;;17.15;;
74108;SDS011;62466;47.566;7.786;2022-12-18T08:46:20;43.10;;;18.15;;
74108;SDS011;62466;47.566;7.786;2022-12-18T08:48:47;35.10;;;16.38;;
74108;SDS011;62466;47.566;7.786;2022-12-18T08:51:12;34.50;;;17.27;;
74108;SDS011;62466;47.566;7.786;2022-12-18T08:53:38;40.80;;;19.08;;
74108;SDS011;62466;47.566;7.786;2022-12-18T08:56:04;34.95;;;15.85;;
74108;SDS011;62466;47.566;7.786;2022-12-18T08:58:37;39.55;;;16.13;;
74108;SDS011;62466;47.566;7.786;2022-12-18T09:01:04;39.80;;;17.52;;
74108;SDS011;62466;47.566;7.786;2022-12-18T09:03:31;35.67;;;16.55;;
74108;SDS011;62466;47.566;7.786;2022-12-18T09:05:59;33.80;;;18.23;;
74108;SDS011;62466;47.566;7.786;2022-12-18T09:08:24;38.35;;;17.35;;
74108;SDS011;62466;47.566;7.786;2022-12-18T09:10:50;39.33;;;16.05;;
74108;SDS011;62466;47.566;7.786;2022-12-18T09:13:16;29.85;;;15.15;;
74108;SDS011;62466;47.566;7.786;2022-12-18T09:15:43;37.30;;;16.60;;
74108;SDS011;62466;47.566;7.786;2022-12-18T09:18:13;36.65;;;16.10;;
74108;SDS011;62466;47.566;7.786;2022-12-18T09:20:40;36.17;;;16.98;;
74108;SDS011;62466;47.566;7.786;2022-12-18T09:23:05;32.25;;;14.43;;
74108;SDS011;62466;47.566;7.786;2022-12-18T09:25:31;32.80;;;15.45;;
74108;SDS011;62466;47.566;7.786;2022-12-18T09:28:09;35.10;;;14.50;;
74108;SDS011;62466;47.566;7.786;2022-12-18T09:30:38;34.72;;;16.05;;
74108;SDS011;62466;47.566;7.786;2022-12-18T09:33:04;30.52;;;14.25;;
74108;SDS011;62466;47.566;7.786;2022-12-18T09:35:29;37.92;;;17.15;;
74108;SDS011;62466;47.566;7.786;2022-12-18T09:37:55;35.28;;;16.35;;
74108;SDS011;62466;47.566;7.786;2022-12-18T09:40:24;35.30;;;17.60;;
74108;SDS011;62466;47.566;7.786;2022-12-18T09:42:52;33.83;;;15.57;;
74108;SDS011;62466;47.566;7.786;2022-12-18T09:45:20;30.00;;;14.98;;
74108;SDS011;62466;47.566;7.786;2022-12-18T09:47:45;38.45;;;17.98;;
74108;SDS011;62466;47.566;7.786;2022-12-18T09:52:51;31.80;;;15.15;;
74108;SDS011;62466;47.566;7.786;2022-12-18T09:55:34;32.53;;;14.50;;
74108;SDS011;62466;47.566;7.786;2022-12-18T09:58:16;33.38;;;15.98;;
74108;SDS011;62466;47.566;7.786;2022-12-18T10:00:43;32.88;;;13.95;;
74108;SDS011;62466;47.566;7.786;2022-12-18T10:03:09;31.75;;;14.68;;
74108;SDS011;62466;47.566;7.786;2022-12-18T10:08:13;30.55;;;15.20;;
74108;SDS011;62466;47.566;7.786;2022-12-18T10:10:51;30.77;;;14.00;;
74108;SDS011;62466;47.566;7.786;2022-12-18T10:13:20;32.88;;;14.85;;
74108;SDS011;62466;47.566;7.786;2022-12-18T10:16:01;30.42;;;13.65;;
74108;SDS011;62466;47.566;7.786;2022-12-18T10:21:12;34.15;;;16.02;;
74108;SDS011;62466;47.566;7.786;2022-12-18T10:23:47;30.85;;;14.07;;
74108;SDS011;62466;47.566;7.786;2022-12-18T10:26:33;32.97;;;14.95;;
74108;SDS011;62466;47.566;7.786;2022-12-18T10:28:59;30.33;;;14.85;;
74108;SDS011;62466;47.566;7.786;2022-12-18T10:31:25;32.15;;;15.07;;
74108;SDS011;62466;47.566;7.786;2022-12-18T10:33:51;31.20;;;15.35;;
74108;SDS011;62466;47.566;7.786;2022-12-18T10:36:20;30.75;;;16.45;;
74108;SDS011;62466;47.566;7.786;2022-12-18T10:38:45;27.38;;;14.48;;
74108;SDS011;62466;47.566;7.786;2022-12-18T10:43:42;26.77;;;14.15;;
74108;SDS011;62466;47.566;7.786;2022-12-18T10:51:06;28.60;;;14.52;;
74108;SDS011;62466;47.566;7.786;2022-12-18T10:53:32;27.75;;;13.55;;
74108;SDS011;62466;47.566;7.786;2022-12-18T10:55:59;31.05;;;14.50;;
74108;SDS011;62466;47.566;7.786;2022-12-18T10:58:36;31.67;;;15.95;;
74108;SDS011;62466;47.566;7.786;2022-12-18T11:03:41;33.40;;;15.48;;
74108;SDS011;62466;47.566;7.786;2022-12-18T11:06:09;28.33;;;14.68;;
74108;SDS011;62466;47.566;7.786;2022-12-18T11:08:37;28.73;;;14.50;;
74108;SDS011;62466;47.566;7.786;2022-12-18T11:11:03;31.35;;;15.40;;
74108;SDS011;62466;47.566;7.786;2022-12-18T11:13:30;26.42;;;13.55;;
74108;SDS011;62466;47.566;7.786;2022-12-18T11:15:56;30.98;;;14.35;;
74108;SDS011;62466;47.566;7.786;2022-12-18T11:20:54;28.65;;;13.93;;
74108;SDS011;62466;47.566;7.786;2022-12-18T11:23:22;26.83;;;13.77;;
74108;SDS011;62466;47.566;7.786;2022-12-18T11:26:07;28.02;;;14.43;;
74108;SDS011;62466;47.566;7.786;2022-12-18T11:36:25;32.67;;;15.80;;
74108;SDS011;62466;47.566;7.786;2022-12-18T11:38:54;28.75;;;14.07;;
74108;SDS011;62466;47.566;7.786;2022-12-18T11:41:31;32.70;;;14.75;;
74108;SDS011;62466;47.566;7.786;2022-12-18T11:44:22;29.67;;;13.75;;
74108;SDS011;62466;47.566;7.786;2022-12-18T11:46:59;34.33;;;15.50;;
74108;SDS011;62466;47.566;7.786;2022-12-18T11:49:28;33.40;;;14.15;;
74108;SDS011;62466;47.566;7.786;2022-12-18T11:54:46;28.27;;;12.65;;
74108;SDS011;62466;47.566;7.786;2022-12-18T12:26:34;30.17;;;15.23;;
74108;SDS011;62466;47.566;7.786;2022-12-18T12:29:07;30.23;;;14.25;;
74108;SDS011;62466;47.566;7.786;2022-12-18T12:31:51;31.58;;;14.10;;
74108;SDS011;62466;47.566;7.786;2022-12-18T12:34:23;26.88;;;14.88;;
74108;SDS011;62466;47.566;7.786;2022-12-18T12:39:25;24.87;;;12.63;;
74108;SDS011;62466;47.566;7.786;2022-12-18T12:41:53;27.73;;;13.82;;
74108;SDS011;62466;47.566;7.786;2022-12-18T12:44:39;27.23;;;13.00;;
74108;SDS011;62466;47.566;7.786;2022-12-18T12:47:13;29.02;;;13.90;;
74108;SDS011;62466;47.566;7.786;2022-12-18T12:49:41;28.92;;;14.95;;
74108;SDS011;62466;47.566;7.786;2022-12-18T12:52:14;25.17;;;14.43;;
74108;SDS011;62466;47.566;7.786;2022-12-18T12:54:41;29.23;;;15.82;;
74108;SDS011;62466;47.566;7.786;2022-12-18T12:57:20;25.90;;;14.57;;
74108;SDS011;62466;47.566;7.786;2022-12-18T13:00:00;28.67;;;13.88;;
74108;SDS011;62466;47.566;7.786;2022-12-18T13:07:45;31.58;;;14.90;;
74108;SDS011;62466;47.566;7.786;2022-12-18T13:10:20;26.52;;;12.38;;
74108;SDS011;62466;47.566;7.786;2022-12-18T13:12:57;28.70;;;13.43;;
74108;SDS011;62466;47.566;7.786;2022-12-18T13:15:37;24.23;;;12.90;;
74108;SDS011;62466;47.566;7.786;2022-12-18T13:20:38;28.45;;;14.25;;
74108;SDS011;62466;47.566;7.786;2022-12-18T13:23:25;32.70;;;15.23;;
74108;SDS011;62466;47.566;7.786;2022-12-18T13:28:23;31.83;;;14.93;;
74108;SDS011;62466;47.566;7.786;2022-12-18T13:30:50;26.65;;;15.32;;
74108;SDS011;62466;47.566;7.786;2022-12-18T13:38:37;26.73;;;13.38;;
74108;SDS011;62466;47.566;7.786;2022-12-18T13:43:45;28.20;;;14.40;;
74108;SDS011;62466;47.566;7.786;2022-12-18T13:46:41;26.58;;;15.07;;
74108;SDS011;62466;47.566;7.786;2022-12-18T13:51:40;29.58;;;14.25;;
74108;SDS011;62466;47.566;7.786;2022-12-18T13:56:45;28.80;;;13.32;;
74108;SDS011;62466;47.566;7.786;2022-12-18T13:59:22;28.52;;;13.20;;
74108;SDS011;62466;47.566;7.786;2022-12-18T14:01:56;28.00;;;12.90;;
74108;SDS011;62466;47.566;7.786;2022-12-18T14:04:24;30.27;;;13.80;;
74108;SDS011;62466;47.566;7.786;2022-12-18T14:07:34;25.73;;;13.30;;
74108;SDS011;62466;47.566;7.786;2022-12-18T14:09:42;30.48;;;14.63;;
74108;SDS011;62466;47.566;7.786;2022-12-18T14:17:51;30.17;;;13.50;;
74108;SDS011;62466;47.566;7.786;2022-12-18T14:20:17;26.08;;;14.02;;
74108;SDS011;62466;47.566;7.786;2022-12-18T14:22:43;29.88;;;13.43;;
74108;SDS011;62466;47.566;7.786;2022-12-18T14:25:14;33.25;;;14.45;;
74108;SDS011;62466;47.566;7.786;2022-12-18T14:27:44;26.77;;;13.93;;
74108;SDS011;62466;47.566;7.786;2022-12-18T14:35:37;24.98;;;12.38;;
74108;SDS011;62466;47.566;7.786;2022-12-18T14:40:52;27.50;;;13.70;;
74108;SDS011;62466;47.566;7.786;2022-12-18T14:43:30;28.05;;;13.57;;
74108;SDS011;62466;47.566;7.786;2022-12-18T14:45:57;32.15;;;14.25;;
74108;SDS011;62466;47.566;7.786;2022-12-18T14:48:36;24.10;;;13.23;;
74108;SDS011;62466;47.566;7.786;2022-12-18T14:51:14;28.67;;;14.35;;
74108;SDS011;62466;47.566;7.786;2022-12-18T14:53:45;27.25;;;13.60;;
74108;SDS011;62466;47.566;7.786;2022-12-18T14:56:22;29.08;;;13.27;;
74108;SDS011;62466;47.566;7.786;2022-12-18T14:58:54;28.63;;;13.55;;
74108;SDS011;62466;47.566;7.786;2022-12-18T15:03:52;24.00;;;13.77;;
74108;SDS011;62466;47.566;7.786;2022-12-18T15:06:28;29.58;;;14.77;;
74108;SDS011;62466;47.566;7.786;2022-12-18T15:09:02;25.45;;;12.85;;
74108;SDS011;62466;47.566;7.786;2022-12-18T15:11:45;26.75;;;13.30;;
74108;SDS011;62466;47.566;7.786;2022-12-18T15:16:55;28.13;;;13.70;;
74108;SDS011;62466;47.566;7.786;2022-12-18T15:19:24;28.20;;;13.13;;
74108;SDS011;62466;47.566;7.786;2022-12-18T15:22:34;30.65;;;14.27;;
74108;SDS011;62466;47.566;7.786;2022-12-18T15:25:20;30.65;;;13.77;;
74108;SDS011;62466;47.566;7.786;2022-12-18T15:27:54;27.13;;;14.02;;
74108;SDS011;62466;47.566;7.786;2022-12-18T15:30:26;31.83;;;15.00;;
74108;SDS011;62466;47.566;7.786;2022-12-18T15:33:22;36.20;;;14.20;;
74108;SDS011;62466;47.566;7.786;2022-12-18T15:35:59;28.00;;;14.60;;
74108;SDS011;62466;47.566;7.786;2022-12-18T15:38:26;30.00;;;14.38;;
74108;SDS011;62466;47.566;7.786;2022-12-18T15:40:52;31.05;;;15.82;;
74108;SDS011;62466;47.566;7.786;2022-12-18T15:43:21;28.35;;;13.77;;
74108;SDS011;62466;47.566;7.786;2022-12-18T15:46:03;32.70;;;14.45;;
74108;SDS011;62466;47.566;7.786;2022-12-18T15:48:34;32.83;;;14.85;;
74108;SDS011;62466;47.566;7.786;2022-12-18T15:53:30;26.27;;;11.50;;
74108;SDS011;62466;47.566;7.786;2022-12-18T15:55:57;26.20;;;13.90;;
74108;SDS011;62466;47.566;7.786;2022-12-18T15:58:44;30.38;;;13.93;;
74108;SDS011;62466;47.566;7.786;2022-12-18T16:01:13;29.00;;;14.05;;
74108;SDS011;62466;47.566;7.786;2022-12-18T16:03:39;29.48;;;13.60;;
74108;SDS011;62466;47.566;7.786;2022-12-18T16:06:04;28.80;;;14.23;;
74108;SDS011;62466;47.566;7.786;2022-12-18T16:08:31;27.60;;;12.77;;
74108;SDS011;62466;47.566;7.786;2022-12-18T16:11:08;30.88;;;14.35;;
74108;SDS011;62466;47.566;7.786;2022-12-18T16:18:15;27.90;;;14.15;;
74108;SDS011;62466;47.566;7.786;2022-12-18T16:20:40;31.98;;;13.82;;
74108;SDS011;62466;47.566;7.786;2022-12-18T16:23:06;26.10;;;13.88;;
74108;SDS011;62466;47.566;7.786;2022-12-18T16:25:34;27.73;;;13.07;;
74108;SDS011;62466;47.566;7.786;2022-12-18T16:28:00;26.40;;;13.07;;
74108;SDS011;62466;47.566;7.786;2022-12-18T16:30:27;32.75;;;13.90;;
74108;SDS011;62466;47.566;7.786;2022-12-18T16:32:55;29.27;;;14.13;;
74108;SDS011;62466;47.566;7.786;2022-12-18T16:35:22;28.83;;;14.07;;
74108;SDS011;62466;47.566;7.786;2022-12-18T16:37:48;30.13;;;13.93;;
74108;SDS011;62466;47.566;7.786;2022-12-18T16:40:16;30.20;;;14.90;;
74108;SDS011;62466;47.566;7.786;2022-12-18T16:42:43;37.95;;;15.23;;
74108;SDS011;62466;47.566;7.786;2022-12-18T16:45:10;32.35;;;15.57;;
74108;SDS011;62466;47.566;7.786;2022-12-18T16:47:39;28.90;;;13.63;;
74108;SDS011;62466;47.566;7.786;2022-12-18T16:50:05;29.40;;;14.07;;
74108;SDS011;62466;47.566;7.786;2022-12-18T16:52:31;33.75;;;15.10;;